createdAt,value
2022-09-27T00:00:44.564Z,3.60
2022-09-27T00:03:11.751Z,2.67
2022-09-27T00:05:38.268Z,1.35
2022-09-27T00:08:04.947Z,3.95
2022-09-27T00:10:31.948Z,4.43
2022-09-27T00:12:59.098Z,4.27
2022-09-27T00:15:25.541Z,2.58
2022-09-27T00:17:52.252Z,3.85
2022-09-27T00:20:20.536Z,4.68
2022-09-27T00:22:48.969Z,4.13
2022-09-27T00:25:15.740Z,5.53
2022-09-27T00:27:42.330Z,3.92
2022-09-27T00:30:09.884Z,6.93
2022-09-27T00:32:36.286Z,4.45
2022-09-27T00:35:02.904Z,7.28
2022-09-27T00:37:29.264Z,4.60
2022-09-27T00:39:55.611Z,4.85
2022-09-27T00:42:21.999Z,9.80
2022-09-27T00:45:02.248Z,5.53
2022-09-27T00:47:42.703Z,6.20
2022-09-27T00:50:29.762Z,4.93
2022-09-27T00:52:58.806Z,10.32
2022-09-27T00:55:30.658Z,5.50
2022-09-27T00:57:57.810Z,8.93
2022-09-27T01:00:24.367Z,5.20
2022-09-27T01:02:54.072Z,9.30
2022-09-27T01:05:24.297Z,4.47
2022-09-27T01:07:50.892Z,5.82
2022-09-27T01:10:19.045Z,6.05
2022-09-27T01:13:09.906Z,6.47
2022-09-27T01:15:49.216Z,5.93
2022-09-27T01:18:21.562Z,6.78
2022-09-27T01:21:14.394Z,7.80
2022-09-27T01:23:53.489Z,7.85
2022-09-27T01:26:56.764Z,4.88
2022-09-27T01:29:44.958Z,6.70
2022-09-27T01:32:23.747Z,6.32
2022-09-27T01:35:21.112Z,8.38
2022-09-27T01:37:53.478Z,4.97
2022-09-27T01:40:28.687Z,4.22
2022-09-27T01:43:10.680Z,6.57
2022-09-27T01:45:43.790Z,6.47
2022-09-27T01:48:24.287Z,4.97
2022-09-27T01:51:26.282Z,4.90
2022-09-27T01:53:55.302Z,3.22
2022-09-27T01:56:26.968Z,3.10
2022-09-27T01:58:59.180Z,4.18
2022-09-27T02:01:28.892Z,2.80
2022-09-27T02:03:59.047Z,3.20
2022-09-27T02:06:33.540Z,4.55
2022-09-27T02:09:09.886Z,5.77
2022-09-27T02:11:40.177Z,4.65
2022-09-27T02:14:23.095Z,4.57
2022-09-27T02:17:04.898Z,3.55
2022-09-27T02:19:43.487Z,4.28
2022-09-27T02:22:28.403Z,4.23
2022-09-27T02:25:00.042Z,2.08
2022-09-27T02:27:31.682Z,4.03
2022-09-27T02:30:08.926Z,2.45
2022-09-27T02:32:36.082Z,1.40
2022-09-27T02:35:18.618Z,3.30
2022-09-27T02:37:45.246Z,3.75
2022-09-27T02:40:13.741Z,1.08
2022-09-27T02:42:43.087Z,0.93
2022-09-27T02:45:12.546Z,1.88
2022-09-27T02:47:57.217Z,3.50
2022-09-27T02:50:58.604Z,4.93
2022-09-27T02:54:16.224Z,2.35
2022-09-27T02:56:49.201Z,1.25
2022-09-27T02:59:39.455Z,3.83
2022-09-27T03:02:49.544Z,2.73
2022-09-27T03:05:20.701Z,1.75
2022-09-27T03:07:48.432Z,1.90
2022-09-27T03:10:21.520Z,1.63
2022-09-27T03:12:47.943Z,0.95
2022-09-27T03:15:14.418Z,1.00
2022-09-27T03:17:40.785Z,2.30
2022-09-27T03:20:08.507Z,1.00
2022-09-27T03:22:35.787Z,1.10
2022-09-27T03:25:02.202Z,1.95
2022-09-27T03:27:28.625Z,1.13
2022-09-27T03:29:54.972Z,1.55
2022-09-27T03:32:21.377Z,1.80
2022-09-27T03:34:47.742Z,1.13
2022-09-27T03:37:14.286Z,1.55
2022-09-27T03:39:40.637Z,1.03
2022-09-27T03:42:06.972Z,3.55
2022-09-27T03:44:33.395Z,2.38
2022-09-27T03:47:00.086Z,1.73
2022-09-27T03:49:26.463Z,2.83
2022-09-27T03:51:53.226Z,2.57
2022-09-27T03:54:19.669Z,1.55
2022-09-27T03:56:46.096Z,1.02
2022-09-27T03:59:12.515Z,4.25
2022-09-27T04:01:38.975Z,1.30
2022-09-27T04:04:10.883Z,1.90
2022-09-27T04:06:37.634Z,0.80
2022-09-27T04:09:04.406Z,3.20
2022-09-27T04:11:30.801Z,0.98
2022-09-27T04:13:57.714Z,1.65
2022-09-27T04:16:25.113Z,1.50
2022-09-27T04:18:51.569Z,0.90
2022-09-27T04:21:18.004Z,1.25
2022-09-27T04:23:44.413Z,1.55
2022-09-27T04:26:11.185Z,2.28
2022-09-27T04:28:37.612Z,1.53
2022-09-27T04:31:04.106Z,1.70
2022-09-27T04:33:30.463Z,1.83
2022-09-27T04:36:15.142Z,1.02
2022-09-27T04:38:41.482Z,1.52
2022-09-27T04:41:07.896Z,1.40
2022-09-27T04:43:34.584Z,1.20
2022-09-27T04:46:01.062Z,1.40
2022-09-27T04:48:27.535Z,2.00
2022-09-27T04:50:58.462Z,1.35
2022-09-27T04:53:25.343Z,2.13
2022-09-27T04:55:53.468Z,1.65
2022-09-27T04:58:20.314Z,0.82
2022-09-27T05:00:47.279Z,1.75
2022-09-27T05:03:14.884Z,2.25
2022-09-27T05:05:41.481Z,1.97
2022-09-27T05:08:07.948Z,4.40
2022-09-27T05:10:34.314Z,2.22
2022-09-27T05:13:00.646Z,1.48
2022-09-27T05:15:27.012Z,3.08
2022-09-27T05:17:53.754Z,1.27
2022-09-27T05:20:20.542Z,1.50
2022-09-27T05:22:47.038Z,2.30
2022-09-27T05:25:13.554Z,2.25
2022-09-27T05:27:40.007Z,1.10
2022-09-27T05:30:07.989Z,2.73
2022-09-27T05:32:35.205Z,2.28
2022-09-27T05:35:02.369Z,2.03
2022-09-27T05:37:29.980Z,1.80
2022-09-27T05:39:56.336Z,1.92
2022-09-27T05:42:23.386Z,1.70
2022-09-27T05:44:49.759Z,2.33
2022-09-27T05:47:16.152Z,1.40
2022-09-27T05:49:42.599Z,2.03
2022-09-27T05:52:13.233Z,2.05
2022-09-27T05:54:42.511Z,1.03
2022-09-27T05:57:09.074Z,1.65
2022-09-27T05:59:35.423Z,4.45
2022-09-27T06:02:02.018Z,1.30
2022-09-27T06:04:28.435Z,0.90
2022-09-27T06:06:54.829Z,1.50
2022-09-27T06:09:21.166Z,3.00
2022-09-27T06:11:47.533Z,2.28
2022-09-27T06:14:14.043Z,2.00
2022-09-27T06:16:40.588Z,1.25
2022-09-27T06:19:06.998Z,1.73
2022-09-27T06:21:33.693Z,1.65
2022-09-27T06:24:00.227Z,0.80
2022-09-27T06:26:29.788Z,1.65
2022-09-27T06:28:56.677Z,1.20
2022-09-27T06:31:23.044Z,1.10
2022-09-27T06:33:50.118Z,1.48
2022-09-27T06:38:49.064Z,3.25
2022-09-27T06:41:15.466Z,0.85
2022-09-27T06:43:41.853Z,0.60
2022-09-27T06:46:08.282Z,2.47
2022-09-27T06:48:38.347Z,2.38
2022-09-27T06:51:05.295Z,1.95
2022-09-27T06:53:31.959Z,2.88
2022-09-27T06:56:00.686Z,2.13
2022-09-27T06:58:46.765Z,1.75
2022-09-27T07:01:13.541Z,1.48
2022-09-27T07:03:43.041Z,1.73
2022-09-27T07:06:20.331Z,3.33
2022-09-27T07:08:51.137Z,1.43
2022-09-27T07:11:18.251Z,1.67
2022-09-27T07:13:44.631Z,1.70
2022-09-27T07:16:13.118Z,1.40
2022-09-27T07:18:40.971Z,1.27
2022-09-27T07:21:08.738Z,1.67
2022-09-27T07:23:36.114Z,3.58
2022-09-27T07:26:07.370Z,2.03
2022-09-27T07:28:34.479Z,1.92
2022-09-27T07:31:02.548Z,1.17
2022-09-27T07:33:30.117Z,2.43
2022-09-27T07:35:56.466Z,2.55
2022-09-27T07:38:22.985Z,1.77
2022-09-27T07:40:49.440Z,1.02
2022-09-27T07:43:16.011Z,1.73
2022-09-27T07:45:42.465Z,1.80
2022-09-27T07:48:13.135Z,1.70
2022-09-27T07:50:39.822Z,2.08
2022-09-27T07:53:06.290Z,1.00
2022-09-27T07:55:33.165Z,2.67
2022-09-27T07:58:10.665Z,1.40
2022-09-27T08:00:38.551Z,2.65
2022-09-27T08:03:10.699Z,1.92
2022-09-27T08:05:38.057Z,2.35
2022-09-27T08:08:04.556Z,1.75
2022-09-27T08:10:32.908Z,1.00
2022-09-27T08:13:03.053Z,1.25
2022-09-27T08:15:31.366Z,2.95
2022-09-27T08:17:57.761Z,1.70
2022-09-27T08:20:24.300Z,1.90
2022-09-27T08:22:50.700Z,1.67
2022-09-27T08:25:17.636Z,2.50
2022-09-27T08:27:44.077Z,1.15
2022-09-27T08:30:10.783Z,1.42
2022-09-27T08:32:37.796Z,1.65
2022-09-27T08:35:07.236Z,7.17
2022-09-27T08:37:33.723Z,1.40
2022-09-27T08:40:00.442Z,1.40
2022-09-27T08:42:55.040Z,3.15
2022-09-27T08:45:31.373Z,1.58
2022-09-27T08:48:04.739Z,2.90
2022-09-27T08:50:41.850Z,2.75
2022-09-27T08:53:14.287Z,1.42
2022-09-27T08:55:55.434Z,1.33
2022-09-27T08:58:27.156Z,1.58
2022-09-27T09:00:57.414Z,1.00
2022-09-27T09:03:27.203Z,3.13
2022-09-27T09:06:16.860Z,2.20
2022-09-27T09:09:10.383Z,1.70
2022-09-27T09:12:17.164Z,1.23
2022-09-27T09:15:06.611Z,3.50
2022-09-27T09:18:01.827Z,2.25
2022-09-27T09:20:38.119Z,3.17
2022-09-27T09:23:37.053Z,2.78
2022-09-27T09:26:22.794Z,1.15
2022-09-27T09:29:11.319Z,1.00
2022-09-27T09:31:46.761Z,0.90
2022-09-27T09:34:56.933Z,1.42
2022-09-27T09:37:38.754Z,0.50
2022-09-27T09:40:47.229Z,2.38
2022-09-27T09:43:28.645Z,1.13
2022-09-27T09:46:02.279Z,0.65
2022-09-27T09:48:39.594Z,2.30
2022-09-27T09:51:11.824Z,1.60
2022-09-27T09:53:52.093Z,0.60
2022-09-27T09:56:30.362Z,2.30
2022-09-27T09:59:02.502Z,1.73
2022-09-27T10:01:39.252Z,0.98
2022-09-27T10:04:05.770Z,2.00
2022-09-27T10:06:32.414Z,1.48
2022-09-27T10:08:59.717Z,1.67
2022-09-27T10:11:36.978Z,1.67
2022-09-27T10:14:03.356Z,1.48
2022-09-27T10:16:29.909Z,1.75
2022-09-27T10:19:02.712Z,2.17
2022-09-27T10:21:30.199Z,1.17
2022-09-27T10:24:18.099Z,0.98
2022-09-27T10:26:47.551Z,1.35
2022-09-27T10:29:37.862Z,1.45
2022-09-27T10:32:11.878Z,4.50
2022-09-27T10:34:41.289Z,1.50
2022-09-27T10:37:21.682Z,1.58
2022-09-27T10:39:50.841Z,3.40
2022-09-27T10:42:37.842Z,1.58
2022-09-27T10:45:30.791Z,3.40
2022-09-27T10:47:59.492Z,1.77
2022-09-27T10:50:50.929Z,2.33
2022-09-27T10:53:21.615Z,2.20
2022-09-27T10:55:51.152Z,2.08
2022-09-27T10:58:31.153Z,1.45
2022-09-27T11:01:02.345Z,1.70
2022-09-27T11:03:37.847Z,1.25
2022-09-27T11:06:22.499Z,2.72
2022-09-27T11:08:53.019Z,2.22
2022-09-27T11:11:28.301Z,1.38
2022-09-27T11:14:07.989Z,1.70
2022-09-27T11:16:52.903Z,2.50
2022-09-27T11:20:14.257Z,2.50
2022-09-27T11:23:04.549Z,2.70
2022-09-27T11:26:08.053Z,2.88
2022-09-27T11:29:01.827Z,1.67
2022-09-27T11:31:40.751Z,1.33
2022-09-27T11:34:31.702Z,2.10
2022-09-27T11:37:36.331Z,1.45
2022-09-27T11:40:21.969Z,1.58
2022-09-27T11:43:22.382Z,1.60
2022-09-27T11:48:53.638Z,1.90
2022-09-27T11:52:11.132Z,1.70
2022-09-27T11:54:43.344Z,1.70
2022-09-27T11:57:18.688Z,1.93
2022-09-27T12:00:10.444Z,2.03
2022-09-27T12:03:04.453Z,2.63
2022-09-27T12:05:31.505Z,1.20
2022-09-27T12:08:06.602Z,2.13
2022-09-27T12:10:35.857Z,1.63
2022-09-27T12:13:03.581Z,2.28
2022-09-27T12:15:36.176Z,1.40
2022-09-27T12:18:24.933Z,1.48
2022-09-27T12:20:53.275Z,1.70
2022-09-27T12:23:28.949Z,1.87
2022-09-27T12:26:07.587Z,2.63
2022-09-27T12:28:52.079Z,2.83
2022-09-27T12:31:29.851Z,3.10
2022-09-27T12:34:20.554Z,6.78
2022-09-27T12:36:59.232Z,4.23
2022-09-27T12:39:33.699Z,5.25
2022-09-27T12:42:13.271Z,2.45
2022-09-27T12:44:41.195Z,2.35
2022-09-27T12:47:20.425Z,2.28
2022-09-27T12:49:49.884Z,2.97
2022-09-27T12:52:25.428Z,2.20
2022-09-27T12:55:12.146Z,2.15
2022-09-27T12:57:58.457Z,1.45
2022-09-27T13:00:30.468Z,1.63
2022-09-27T13:03:32.296Z,2.17
2022-09-27T13:05:58.562Z,1.00
2022-09-27T13:08:54.360Z,1.85
2022-09-27T13:11:29.303Z,2.40
2022-09-27T13:14:00.022Z,1.45
2022-09-27T13:16:26.732Z,2.50
2022-09-27T13:19:01.633Z,2.40
2022-09-27T13:21:49.454Z,0.85
2022-09-27T13:24:47.164Z,1.33
2022-09-27T13:27:23.082Z,2.35
2022-09-27T13:29:50.742Z,4.17
2022-09-27T13:32:18.636Z,3.17
2022-09-27T13:34:53.577Z,3.25
2022-09-27T13:37:28.837Z,1.92
2022-09-27T13:40:27.533Z,1.92
2022-09-27T13:43:17.579Z,1.83
2022-09-27T13:45:57.113Z,1.60
2022-09-27T13:48:51.229Z,1.83
2022-09-27T13:51:40.651Z,1.60
2022-09-27T13:54:49.880Z,2.22
2022-09-27T13:57:34.999Z,1.70
2022-09-27T14:00:05.463Z,2.00
2022-09-27T14:02:38.238Z,2.28
2022-09-27T14:05:12.862Z,1.48
2022-09-27T14:07:44.233Z,1.10
2022-09-27T14:10:17.332Z,2.43
2022-09-27T14:12:45.283Z,1.40
2022-09-27T14:15:21.076Z,2.30
2022-09-27T14:17:47.543Z,1.50
2022-09-27T14:20:52.077Z,1.60
2022-09-27T14:23:23.932Z,1.30
2022-09-27T14:25:53.201Z,2.22
2022-09-27T14:28:28.262Z,1.40
2022-09-27T14:31:17.716Z,1.85
2022-09-27T14:33:45.314Z,2.63
2022-09-27T14:36:53.665Z,3.83
2022-09-27T14:39:22.929Z,3.03
2022-09-27T14:41:49.918Z,2.00
2022-09-27T14:44:23.630Z,3.55
2022-09-27T14:47:25.415Z,2.53
2022-09-27T14:49:56.695Z,2.63
2022-09-27T14:52:31.216Z,1.38
2022-09-27T14:55:05.806Z,1.50
2022-09-27T14:57:34.298Z,4.07
2022-09-27T15:00:12.513Z,2.63
2022-09-27T15:02:41.296Z,2.10
2022-09-27T15:05:14.536Z,3.40
2022-09-27T15:07:42.327Z,2.45
2022-09-27T15:10:16.934Z,3.67
2022-09-27T15:12:48.023Z,5.32
2022-09-27T15:15:19.571Z,6.00
2022-09-27T15:17:47.002Z,7.03
2022-09-27T15:20:32.337Z,3.08
2022-09-27T15:23:03.222Z,1.30
2022-09-27T15:25:34.447Z,2.10
2022-09-27T15:28:19.081Z,1.93
2022-09-27T15:30:56.968Z,1.92
2022-09-27T15:33:27.044Z,1.77
2022-09-27T15:36:02.577Z,3.10
2022-09-27T15:38:33.949Z,1.90
2022-09-27T15:41:03.945Z,2.03
2022-09-27T15:43:50.004Z,2.90
2022-09-27T15:46:22.827Z,2.42
2022-09-27T15:49:14.205Z,1.75
2022-09-27T15:51:42.641Z,4.85
2022-09-27T15:54:09.025Z,3.27
2022-09-27T15:56:36.491Z,2.60
2022-09-27T15:59:03.690Z,2.47
2022-09-27T16:01:30.208Z,1.90
2022-09-27T16:03:59.167Z,3.28
2022-09-27T16:06:28.980Z,3.43
2022-09-27T16:08:55.466Z,3.85
2022-09-27T16:11:21.797Z,1.60
2022-09-27T16:13:50.278Z,2.42
2022-09-27T16:16:19.350Z,2.78
2022-09-27T16:18:46.439Z,2.27
2022-09-27T16:21:13.137Z,3.58
2022-09-27T16:23:39.767Z,2.40
2022-09-27T16:26:06.502Z,2.72
2022-09-27T16:28:34.112Z,1.88
2022-09-27T16:31:03.580Z,2.93
2022-09-27T16:33:31.879Z,1.55
2022-09-27T16:36:05.378Z,2.65
2022-09-27T16:38:31.704Z,1.85
2022-09-27T16:41:02.987Z,2.75
2022-09-27T16:43:30.106Z,2.63
2022-09-27T16:46:04.336Z,2.90
2022-09-27T16:48:30.655Z,2.78
2022-09-27T16:51:21.625Z,2.35
2022-09-27T16:53:47.989Z,3.25
2022-09-27T16:56:14.343Z,2.30
2022-09-27T16:58:40.664Z,2.03
2022-09-27T17:01:08.282Z,3.72
2022-09-27T17:03:34.636Z,3.63
2022-09-27T17:06:04.037Z,3.55
2022-09-27T17:08:30.902Z,3.40
2022-09-27T17:10:57.341Z,3.78
2022-09-27T17:13:23.945Z,3.58
2022-09-27T17:15:50.337Z,4.93
2022-09-27T17:18:17.352Z,4.03
2022-09-27T17:20:44.233Z,3.80
2022-09-27T17:23:10.630Z,3.63
2022-09-27T17:25:37.163Z,4.05
2022-09-27T17:28:03.502Z,3.88
2022-09-27T17:30:29.902Z,4.30
2022-09-27T17:32:56.253Z,4.17
2022-09-27T17:35:22.646Z,5.63
2022-09-27T17:37:50.617Z,3.55
2022-09-27T17:40:17.700Z,3.63
2022-09-27T17:42:44.157Z,2.60
2022-09-27T17:45:10.703Z,4.10
2022-09-27T17:47:55.809Z,5.30
2022-09-27T17:50:24.772Z,3.65
2022-09-27T17:52:53.227Z,4.32
2022-09-27T17:55:21.516Z,3.08
2022-09-27T17:57:49.043Z,3.57
2022-09-27T18:00:16.383Z,3.08
2022-09-27T18:02:42.854Z,3.75
2022-09-27T18:05:09.810Z,3.17
2022-09-27T18:07:37.310Z,4.40
2022-09-27T18:10:04.685Z,4.20
2022-09-27T18:12:34.843Z,5.18
2022-09-27T18:15:02.411Z,3.97
2022-09-27T18:17:28.807Z,4.40
2022-09-27T18:19:56.876Z,5.07
2022-09-27T18:22:28.646Z,4.23
2022-09-27T18:24:55.036Z,5.45
2022-09-27T18:27:21.418Z,4.22
2022-09-27T18:29:47.779Z,5.43
2022-09-27T18:32:14.281Z,5.03
2022-09-27T18:34:40.821Z,3.73
2022-09-27T18:37:07.227Z,4.72
2022-09-27T18:39:33.559Z,6.25
2022-09-27T18:41:59.906Z,8.02
2022-09-27T18:44:26.415Z,4.50
2022-09-27T18:46:52.818Z,4.40
2022-09-27T18:49:22.286Z,7.63
2022-09-27T18:51:52.095Z,6.30
2022-09-27T18:54:20.413Z,6.07
2022-09-27T18:56:49.534Z,4.75
2022-09-27T18:59:17.029Z,4.90
2022-09-27T19:01:45.736Z,7.82
2022-09-27T19:04:15.188Z,10.57
2022-09-27T19:06:42.792Z,6.32
2022-09-27T19:09:11.353Z,7.60
2022-09-27T19:11:37.802Z,3.43
2022-09-27T19:14:04.230Z,3.58
2022-09-27T19:16:31.040Z,3.63
2022-09-27T19:18:57.545Z,3.45
2022-09-27T19:21:26.853Z,3.65
2022-09-27T19:23:54.361Z,5.37
2022-09-27T19:26:23.416Z,4.60
2022-09-27T19:28:50.241Z,7.30
2022-09-27T19:31:22.787Z,6.10
2022-09-27T19:33:49.636Z,5.90
2022-09-27T19:36:17.802Z,5.30
2022-09-27T19:38:44.946Z,6.53
2022-09-27T19:41:13.799Z,6.75
2022-09-27T19:43:41.286Z,8.10
2022-09-27T19:46:12.210Z,6.70
2022-09-27T19:48:38.862Z,8.00
2022-09-27T19:51:06.158Z,9.93
2022-09-27T19:53:34.256Z,11.38
2022-09-27T19:56:02.360Z,13.18
2022-09-27T19:58:30.498Z,11.18
2022-09-27T20:01:08.358Z,11.97
2022-09-27T20:03:37.122Z,9.93
2022-09-27T20:06:05.328Z,8.43
2022-09-27T20:08:31.919Z,7.32
2022-09-27T20:11:07.605Z,6.50
2022-09-27T20:13:35.213Z,6.17
2022-09-27T20:16:04.891Z,16.50
2022-09-27T20:18:31.486Z,17.60
2022-09-27T20:21:05.181Z,12.02
2022-09-27T20:23:33.523Z,8.75
2022-09-27T20:26:05.285Z,7.20
2022-09-27T20:28:31.903Z,7.32
2022-09-27T20:30:59.865Z,8.07
2022-09-27T20:33:41.751Z,8.27
2022-09-27T20:36:09.455Z,6.53
2022-09-27T20:38:35.856Z,8.13
2022-09-27T20:41:02.170Z,5.82
2022-09-27T20:43:28.565Z,6.45
2022-09-27T20:46:00.189Z,6.78
2022-09-27T20:48:26.536Z,5.93
2022-09-27T20:51:00.289Z,6.33
2022-09-27T20:53:30.166Z,7.78
2022-09-27T20:55:59.254Z,5.70
2022-09-27T20:58:26.708Z,5.07
2022-09-27T21:00:53.096Z,4.70
2022-09-27T21:03:21.840Z,5.47
2022-09-27T21:05:58.414Z,4.38
2022-09-27T21:08:25.223Z,3.67
2022-09-27T21:10:53.026Z,5.28
2022-09-27T21:13:19.698Z,5.57
2022-09-27T21:15:46.109Z,5.93
2022-09-27T21:18:12.641Z,4.68
2022-09-27T21:20:39.659Z,6.78
2022-09-27T21:23:06.025Z,4.93
2022-09-27T21:25:32.381Z,6.93
2022-09-27T21:27:58.735Z,3.33
2022-09-27T21:30:25.262Z,5.18
2022-09-27T21:32:55.395Z,6.32
2022-09-27T21:35:22.695Z,6.50
2022-09-27T21:37:49.506Z,6.07
2022-09-27T21:40:16.841Z,7.37
2022-09-27T21:42:43.265Z,8.30
2022-09-27T21:45:10.248Z,7.05
2022-09-27T21:47:36.653Z,7.40
2022-09-27T21:50:03.207Z,8.35
2022-09-27T21:52:29.586Z,10.47
2022-09-27T21:54:56.885Z,7.70
2022-09-27T21:57:23.269Z,6.65
2022-09-27T21:59:49.625Z,7.18
2022-09-27T22:02:19.496Z,9.48
2022-09-27T22:04:45.952Z,8.53
2022-09-27T22:07:12.301Z,8.68
2022-09-27T22:09:38.824Z,9.50
2022-09-27T22:12:06.171Z,7.90
2022-09-27T22:14:34.150Z,9.73
2022-09-27T22:17:00.482Z,12.50
2022-09-27T22:19:26.865Z,10.63
2022-09-27T22:21:53.205Z,8.60
2022-09-27T22:24:19.610Z,9.63
2022-09-27T22:26:49.619Z,7.60
2022-09-27T22:29:16.630Z,9.90
2022-09-27T22:31:43.207Z,7.40
2022-09-27T22:34:18.589Z,9.85
2022-09-27T22:36:45.373Z,9.77
2022-09-27T22:39:12.318Z,9.02
2022-09-27T22:41:38.704Z,10.00
2022-09-27T22:44:05.147Z,10.43
2022-09-27T22:46:31.509Z,9.15
2022-09-27T22:48:57.967Z,8.02
2022-09-27T22:51:24.302Z,6.60
2022-09-27T22:53:50.660Z,9.90
2022-09-27T22:56:20.013Z,6.50
2022-09-27T22:58:47.765Z,7.45
2022-09-27T23:01:23.032Z,10.90
2022-09-27T23:03:51.361Z,10.02
2022-09-27T23:06:19.234Z,7.77
2022-09-27T23:08:47.336Z,9.25
2022-09-27T23:11:19.701Z,7.43
2022-09-27T23:13:46.652Z,9.70
2022-09-27T23:16:20.247Z,9.45
2022-09-27T23:18:47.713Z,9.37
2022-09-27T23:21:15.585Z,10.18
2022-09-27T23:23:45.166Z,9.77
2022-09-27T23:26:16.215Z,10.13
2022-09-27T23:28:43.302Z,8.82
2022-09-27T23:31:14.950Z,8.70
2022-09-27T23:33:44.869Z,7.93
2022-09-27T23:36:15.089Z,9.20
2022-09-27T23:38:42.281Z,12.73
2022-09-27T23:41:08.705Z,7.70
2022-09-27T23:43:36.327Z,7.20
2022-09-27T23:46:04.527Z,8.70
2022-09-27T23:48:30.926Z,8.45
2022-09-27T23:50:57.357Z,10.25
2022-09-27T23:53:24.428Z,9.48
2022-09-27T23:56:13.334Z,9.13
2022-09-27T23:58:42.360Z,8.82
